ROMMA est une association bénévole à but non lucratif. Votre soutien est indispensable : ADHERER à ROMMA ou FAIRE un DON

Granges-lès-Beaumont - (26, Drôme)

Drôme des Collines (155 m)   Longitude: 04°58'E   Latitude: 45°03'N Station partenaire n°123
 

Détail journalier du     <<     >>

Température Precipitation Humidité Pression Vent Dir Rafale Dir. rafale Ensol.
Heure (°C) (mm) (%) (hPa) (km/h) (km/h) (min)
01:00 5.4088101510NNO18NNO0
02:00 4.709010159NNO13NNO0
03:00 5.608910148NNO16NNE0
04:00 5.109010147NNO15NNE0
05:00 5.808910147NNO15NO0
06:00 5.608910145NNO15E0
07:00 5.908910133N16NO0
08:00 5.808910145NO16ONO0
09:00 6.4089101403E0
10:00 7.208510131---8NNO0
11:00 8.308310133N10NE0
12:00 9.108010124OSO10OSO0
13:00 9.708010114NE11ENE10
14:00 10.207510108E15E0
15:00 10.507310094ENE11E0
16:00 10.807510094NE13E10
17:00 9.908110094ENE8ENE0
18:00 7.108810092NNE8NNE0
19:00 6.308910091---8NO0
20:00 6.209010101---10N0
21:00 6.409210101ONO8O0
22:00 7.009010112---11E0
23:00 7.709010125N26NO0
minuit 7.308910127NE16N0

Graphique du 11-11-2019

 

Serveur OMMA